createdAt,value
2017-06-05T00:03:13.953Z,15.33
2017-06-05T00:08:10.611Z,15.36
2017-06-05T00:13:06.254Z,15.37
2017-06-05T00:18:02.186Z,15.28
2017-06-05T00:22:58.338Z,15.31
2017-06-05T00:27:54.152Z,15.27
2017-06-05T00:32:50.347Z,15.24
2017-06-05T00:37:46.361Z,15.24
2017-06-05T00:42:42.496Z,15.27
2017-06-05T00:47:38.433Z,15.35
2017-06-05T00:52:35.208Z,15.46
2017-06-05T00:57:30.678Z,15.36
2017-06-05T01:02:26.489Z,15.35
2017-06-05T01:07:23.341Z,15.25
2017-06-05T01:12:19.985Z,14.85
2017-06-05T01:17:16.626Z,14.89
2017-06-05T01:22:12.602Z,14.86
2017-06-05T01:27:08.329Z,14.82
2017-06-05T01:32:04.123Z,14.65
2017-06-05T01:36:59.642Z,14.62
2017-06-05T01:41:55.838Z,14.17
2017-06-05T01:46:51.283Z,14.29
2017-06-05T01:51:47.696Z,14.28
2017-06-05T01:56:43.680Z,14.37
2017-06-05T02:01:39.286Z,14.32
2017-06-05T02:06:35.455Z,14.18
2017-06-05T02:11:31.303Z,14.17
2017-06-05T02:16:27.107Z,14.20
2017-06-05T02:21:24.649Z,14.18
2017-06-05T02:26:20.105Z,14.14
2017-06-05T02:31:16.808Z,13.97
2017-06-05T02:36:12.291Z,14.04
2017-06-05T02:41:09.418Z,13.97
2017-06-05T02:46:04.921Z,13.97
2017-06-05T02:51:00.825Z,13.90
2017-06-05T02:55:56.533Z,13.86
2017-06-05T03:00:52.741Z,13.97
2017-06-05T03:05:49.075Z,13.70
2017-06-05T03:10:45.076Z,13.81
2017-06-05T03:15:40.859Z,13.95
2017-06-05T03:20:37.533Z,13.90
2017-06-05T03:25:33.340Z,13.78
2017-06-05T03:30:29.374Z,13.49
2017-06-05T03:35:25.074Z,13.47
2017-06-05T03:40:21.653Z,13.49
2017-06-05T03:45:18.432Z,13.72
2017-06-05T03:50:15.143Z,13.50
2017-06-05T03:55:10.553Z,13.67
2017-06-05T04:00:06.809Z,13.54
2017-06-05T04:05:03.041Z,13.65
2017-06-05T04:10:01.417Z,13.63
2017-06-05T04:14:57.565Z,13.81
2017-06-05T04:19:53.209Z,13.74
2017-06-05T04:24:49.400Z,13.99
2017-06-05T04:29:46.328Z,14.32
2017-06-05T04:34:41.739Z,14.63
2017-06-05T04:39:38.090Z,14.79
2017-06-05T04:44:33.860Z,14.96
2017-06-05T04:49:30.291Z,15.28
2017-06-05T04:54:26.377Z,15.42
2017-06-05T04:59:22.459Z,15.43
2017-06-05T05:04:20.656Z,15.47
2017-06-05T05:09:15.875Z,15.61
2017-06-05T05:14:12.335Z,15.73
2017-06-05T05:19:08.474Z,15.62
2017-06-05T05:24:04.174Z,15.39
2017-06-05T05:29:00.136Z,15.70
2017-06-05T05:33:56.481Z,15.68
2017-06-05T05:38:52.555Z,15.98
2017-06-05T05:43:49.253Z,16.10
2017-06-05T05:48:45.166Z,16.08
2017-06-05T05:53:41.199Z,16.13
2017-06-05T05:58:38.098Z,16.13
2017-06-05T06:03:33.844Z,16.36
2017-06-05T06:08:30.735Z,16.23
2017-06-05T06:13:26.287Z,16.23
2017-06-05T06:18:22.193Z,16.46
2017-06-05T06:23:18.526Z,16.68
2017-06-05T06:28:15.456Z,16.64
2017-06-05T06:33:11.417Z,16.65
2017-06-05T06:38:09.404Z,16.68
2017-06-05T06:43:04.743Z,16.93
2017-06-05T06:48:00.636Z,16.93
2017-06-05T06:52:56.339Z,17.20
2017-06-05T06:57:52.263Z,17.16
2017-06-05T07:02:48.355Z,17.30
2017-06-05T07:07:44.373Z,17.44
2017-06-05T07:12:40.398Z,17.57
2017-06-05T07:17:36.896Z,17.59
2017-06-05T07:22:34.533Z,17.63
2017-06-05T07:27:31.676Z,17.68
2017-06-05T07:32:27.489Z,17.72
2017-06-05T07:37:23.494Z,17.83
2017-06-05T07:42:21.068Z,17.89
2017-06-05T07:47:16.885Z,18.25
2017-06-05T07:52:15.248Z,18.68
2017-06-05T07:57:13.873Z,19.30
2017-06-05T08:02:11.553Z,19.52
2017-06-05T08:07:08.507Z,20.06
2017-06-05T08:12:05.372Z,20.39
2017-06-05T08:17:02.713Z,20.51
2017-06-05T08:22:00.490Z,20.67
2017-06-05T08:26:57.149Z,21.02
2017-06-05T08:31:53.782Z,20.97
2017-06-05T08:36:51.038Z,21.35
2017-06-05T08:41:49.034Z,21.75
2017-06-05T08:46:44.921Z,21.87
2017-06-05T08:51:41.435Z,21.79
2017-06-05T08:56:38.695Z,22.45
2017-06-05T09:01:35.704Z,21.79
2017-06-05T09:06:30.677Z,21.20
2017-06-05T09:11:25.631Z,21.32
2017-06-05T09:16:20.717Z,20.80
2017-06-05T09:21:18.345Z,21.29
2017-06-05T09:26:15.404Z,21.03
2017-06-05T09:31:11.640Z,21.58
2017-06-05T09:36:09.483Z,22.13
2017-06-05T09:41:05.957Z,22.69
2017-06-05T09:46:03.064Z,22.94
2017-06-05T09:51:00.098Z,22.41
2017-06-05T09:55:56.434Z,22.99
2017-06-05T10:00:53.743Z,22.55
2017-06-05T10:05:51.602Z,22.76
2017-06-05T10:10:47.392Z,23.09
2017-06-05T10:15:43.966Z,23.03
2017-06-05T10:20:41.205Z,23.27
2017-06-05T10:25:37.161Z,23.25
2017-06-05T10:30:33.454Z,23.86
2017-06-05T10:35:29.827Z,23.21
2017-06-05T10:40:27.126Z,23.46
2017-06-05T10:45:24.040Z,23.59
2017-06-05T10:50:21.074Z,23.51
2017-06-05T10:55:15.425Z,22.76
2017-06-05T11:00:13.753Z,22.55
2017-06-05T11:05:11.819Z,23.31
2017-06-05T11:10:08.584Z,23.48
2017-06-05T11:15:05.945Z,23.91
2017-06-05T11:20:04.127Z,24.08
2017-06-05T11:25:00.813Z,24.57
2017-06-05T11:29:57.893Z,24.13
2017-06-05T11:34:55.390Z,24.18
2017-06-05T11:39:51.280Z,23.96
2017-06-05T11:44:46.854Z,24.23
2017-06-05T11:49:45.098Z,24.47
2017-06-05T11:54:41.424Z,24.21
2017-06-05T11:59:36.293Z,24.05
2017-06-05T12:04:32.826Z,24.11
2017-06-05T12:09:29.635Z,25.01
2017-06-05T12:14:26.298Z,24.91
2017-06-05T12:19:23.120Z,24.80
2017-06-05T12:24:15.063Z,24.65
2017-06-05T12:29:12.748Z,24.32
2017-06-05T12:34:03.406Z,23.65
2017-06-05T12:39:00.741Z,23.92
2017-06-05T12:43:57.403Z,23.50
2017-06-05T12:48:52.262Z,23.27
2017-06-05T12:58:49.350Z,22.85
2017-06-05T13:03:46.324Z,22.99
2017-06-05T13:08:43.925Z,22.75
2017-06-05T13:13:39.765Z,22.85
2017-06-05T13:18:38.656Z,23.36
2017-06-05T13:23:33.905Z,23.48
2017-06-05T13:28:30.894Z,23.83
2017-06-05T13:33:27.788Z,23.28
2017-06-05T13:38:24.132Z,23.65
2017-06-05T13:43:19.333Z,23.34
2017-06-05T13:48:15.894Z,22.73
2017-06-05T13:53:11.612Z,22.76
2017-06-05T13:58:06.962Z,22.65
2017-06-05T14:03:03.316Z,22.59
2017-06-05T14:07:58.685Z,22.85
2017-06-05T14:12:55.994Z,22.87
2017-06-05T14:17:51.813Z,22.54
2017-06-05T14:22:47.870Z,22.43
2017-06-05T14:27:43.757Z,22.33
2017-06-05T14:32:40.646Z,22.26
2017-06-05T14:37:36.070Z,22.48
2017-06-05T14:42:33.007Z,22.55
2017-06-05T14:47:28.865Z,22.68
2017-06-05T14:52:24.870Z,22.84
2017-06-05T14:57:20.504Z,22.68
2017-06-05T15:02:16.639Z,22.62
2017-06-05T15:07:13.439Z,22.53
2017-06-05T15:12:09.214Z,22.59
2017-06-05T15:17:06.163Z,22.28
2017-06-05T15:22:03.071Z,22.25
2017-06-05T15:26:58.470Z,22.28
2017-06-05T15:31:54.517Z,22.15
2017-06-05T15:36:50.440Z,22.20
2017-06-05T15:41:46.233Z,22.11
2017-06-05T15:46:42.136Z,22.02
2017-06-05T15:51:38.093Z,22.10
2017-06-05T15:56:36.426Z,22.14
2017-06-05T16:01:32.228Z,22.08
2017-06-05T16:06:28.563Z,22.14
2017-06-05T16:11:24.981Z,22.23
2017-06-05T16:16:21.872Z,22.23
2017-06-05T16:21:17.416Z,22.17
2017-06-05T16:26:13.599Z,22.22
2017-06-05T16:31:09.547Z,22.29
2017-06-05T16:36:05.856Z,22.47
2017-06-05T16:41:01.632Z,22.45
2017-06-05T16:45:58.428Z,22.25
2017-06-05T16:50:54.852Z,22.18
2017-06-05T16:55:50.626Z,22.13
2017-06-05T17:00:46.668Z,22.14
2017-06-05T17:05:42.461Z,22.13
2017-06-05T17:10:39.236Z,22.20
2017-06-05T17:15:35.790Z,22.07
2017-06-05T17:20:31.400Z,22.11
2017-06-05T17:25:27.477Z,22.02
2017-06-05T17:30:23.895Z,22.08
2017-06-05T17:35:19.958Z,22.02
2017-06-05T17:40:15.791Z,21.95
2017-06-05T17:45:11.566Z,21.79
2017-06-05T17:50:08.489Z,21.80
2017-06-05T17:55:04.218Z,21.77
2017-06-05T18:00:00.230Z,21.72
2017-06-05T18:04:56.961Z,21.66
2017-06-05T18:09:52.676Z,21.60
2017-06-05T18:14:48.921Z,21.57
2017-06-05T18:19:45.031Z,21.64
2017-06-05T18:24:41.083Z,21.54
2017-06-05T18:29:37.961Z,21.51
2017-06-05T18:34:33.614Z,21.50
2017-06-05T18:39:30.070Z,21.43
2017-06-05T18:44:25.959Z,21.27
2017-06-05T18:49:21.936Z,21.25
2017-06-05T18:54:18.020Z,21.24
2017-06-05T18:59:13.671Z,21.20
2017-06-05T19:04:10.614Z,20.99
2017-06-05T19:09:06.332Z,21.03
2017-06-05T19:14:03.086Z,20.90
2017-06-05T19:19:00.785Z,20.78
2017-06-05T19:23:56.014Z,20.70
2017-06-05T19:28:51.828Z,20.69
2017-06-05T19:33:49.506Z,20.51
2017-06-05T19:38:45.069Z,20.36
2017-06-05T19:43:41.041Z,20.25
2017-06-05T19:48:37.179Z,20.03
2017-06-05T19:53:32.769Z,19.85
2017-06-05T19:58:30.037Z,19.81
2017-06-05T20:03:26.690Z,19.66
2017-06-05T20:08:24.276Z,19.55
2017-06-05T20:13:20.358Z,19.51
2017-06-05T20:18:17.028Z,19.27
2017-06-05T20:23:13.047Z,19.14
2017-06-05T20:28:08.824Z,19.14
2017-06-05T20:33:04.536Z,19.15
2017-06-05T20:38:02.544Z,19.39
2017-06-05T20:42:58.791Z,19.31
2017-06-05T20:47:54.480Z,19.12
2017-06-05T20:52:50.456Z,19.19
2017-06-05T20:57:46.771Z,19.14
2017-06-05T21:02:42.147Z,19.02
2017-06-05T21:07:39.387Z,19.08
2017-06-05T21:12:34.968Z,19.02
2017-06-05T21:17:30.788Z,19.08
2017-06-05T21:22:27.216Z,19.15
2017-06-05T21:27:23.021Z,19.12
2017-06-05T21:32:20.859Z,19.12
2017-06-05T21:37:16.297Z,18.99
2017-06-05T21:42:12.076Z,18.74
2017-06-05T21:47:07.840Z,18.60
2017-06-05T21:52:03.983Z,18.65
2017-06-05T21:57:00.078Z,18.38
2017-06-05T22:01:56.032Z,18.31
2017-06-05T22:06:51.923Z,18.28
2017-06-05T22:11:47.805Z,18.19
2017-06-05T22:16:43.514Z,18.29
2017-06-05T22:21:39.680Z,18.34
2017-06-05T22:26:36.637Z,18.47
2017-06-05T22:31:32.308Z,18.43
2017-06-05T22:36:28.250Z,18.40
2017-06-05T22:41:24.171Z,18.38
2017-06-05T22:46:19.975Z,18.40
2017-06-05T22:51:15.878Z,18.40
2017-06-05T22:56:11.952Z,18.33
2017-06-05T23:01:07.823Z,18.20
2017-06-05T23:06:03.411Z,18.25
2017-06-05T23:10:59.160Z,18.25
2017-06-05T23:15:55.494Z,18.20
2017-06-05T23:20:51.455Z,17.98
2017-06-05T23:25:47.385Z,17.98
2017-06-05T23:30:43.222Z,17.86
2017-06-05T23:35:39.249Z,17.80
2017-06-05T23:40:35.270Z,17.80
2017-06-05T23:45:32.126Z,17.74
2017-06-05T23:50:27.675Z,17.71
2017-06-05T23:55:23.509Z,17.67
